Time;durP1;ratioP1;P1;durP2;ratioP2;P2;SDS_P1;SDS_P2;PMS_P1;PMS_P2;Temp;Humidity;BMP_temperature;BMP_pressure;BME280_temperature;BME280_humidity;BME280_pressure;Samples;Min_cycle;Max_cycle;Signal;HPM_P1;HPM_P2
2021/10/26 00:00:06;;;;;;;32.15;26.05;;;23.30;99.90;;;;;;1903693;72;21149;-80
2021/10/26 00:02:38;;;;;;;33.63;25.65;;;23.50;99.90;;;;;;1987734;71;21527;-80
2021/10/26 00:05:14;;;;;;;34.30;25.00;;;23.50;99.90;;;;;;1923330;72;21167;-80
2021/10/26 00:07:41;;;;;;;30.40;23.55;;;23.60;99.90;;;;;;1977712;70;21518;-80
2021/10/26 00:10:12;;;;;;;29.37;23.47;;;23.50;99.90;;;;;;1965474;69;21154;-81
2021/10/26 00:12:44;;;;;;;29.90;22.70;;;23.60;99.90;;;;;;1961499;69;21282;-80
2021/10/26 00:15:15;;;;;;;27.62;21.85;;;23.70;99.90;;;;;;1953010;70;21164;-81
2021/10/26 00:17:46;;;;;;;29.35;24.02;;;23.90;99.90;;;;;;1986038;69;21656;-81
2021/10/26 00:20:17;;;;;;;35.30;24.82;;;23.80;99.90;;;;;;1958084;69;21526;-81
2021/10/26 00:22:47;;;;;;;32.08;23.47;;;24.10;99.90;;;;;;1985078;70;21621;-80
2021/10/26 00:25:18;;;;;;;31.85;23.05;;;24.00;99.90;;;;;;1972331;70;22161;-81
2021/10/26 00:27:49;;;;;;;30.45;23.90;;;24.00;99.90;;;;;;1952588;72;21141;-74
2021/10/26 00:30:20;;;;;;;30.88;22.73;;;24.10;99.90;;;;;;1949861;71;21126;-75
2021/10/26 00:32:50;;;;;;;29.87;23.35;;;24.30;99.90;;;;;;1965271;71;21770;-76
2021/10/26 00:35:21;;;;;;;28.60;22.58;;;24.30;99.90;;;;;;1981012;69;22332;-75
2021/10/26 00:37:52;;;;;;;25.95;21.20;;;24.40;99.90;;;;;;1977022;69;21192;-75
2021/10/26 00:40:23;;;;;;;27.50;22.60;;;24.40;99.90;;;;;;1966623;69;21162;-74
2021/10/26 00:42:54;;;;;;;31.33;23.92;;;24.50;99.30;;;;;;1977332;69;22788;-75
2021/10/26 00:45:25;;;;;;;27.42;21.20;;;24.40;99.90;;;;;;1967921;69;21127;-75
2021/10/26 00:47:56;;;;;;;28.32;21.65;;;24.60;99.90;;;;;;1971468;69;21226;-75
2021/10/26 00:50:27;;;;;;;28.62;20.85;;;24.50;99.80;;;;;;1987254;69;21102;-75
2021/10/26 00:52:58;;;;;;;24.72;20.08;;;24.60;99.60;;;;;;1964308;70;21653;-74
2021/10/26 00:55:29;;;;;;;26.68;20.12;;;24.80;99.20;;;;;;1976620;71;21194;-74
2021/10/26 00:58:00;;;;;;;23.27;20.02;;;24.60;99.10;;;;;;1977722;69;21091;-74
2021/10/26 01:00:31;;;;;;;26.00;20.52;;;24.60;98.30;;;;;;1986780;69;21204;-76
2021/10/26 01:03:01;;;;;;;23.87;19.17;;;24.70;97.90;;;;;;1980363;69;21720;-74
2021/10/26 01:05:32;;;;;;;23.77;19.35;;;24.80;98.70;;;;;;1995844;69;21194;-75
2021/10/26 01:08:04;;;;;;;21.85;18.87;;;24.90;98.80;;;;;;1988796;69;21680;-76
2021/10/26 01:10:35;;;;;;;22.87;18.67;;;24.80;98.70;;;;;;1884128;74;21205;-76
2021/10/26 01:13:06;;;;;;;26.75;19.48;;;25.00;98.70;;;;;;1926203;71;21835;-75
2021/10/26 01:15:38;;;;;;;27.30;18.95;;;24.90;98.30;;;;;;1954069;70;21907;-75
2021/10/26 01:18:09;;;;;;;24.45;19.07;;;24.90;98.10;;;;;;1955065;70;21142;-75
2021/10/26 01:20:40;;;;;;;21.45;17.42;;;24.90;96.70;;;;;;1930260;71;21689;-75
2021/10/26 01:23:11;;;;;;;23.90;19.45;;;25.10;97.90;;;;;;1909797;72;21346;-75
2021/10/26 01:25:42;;;;;;;23.98;17.40;;;25.10;98.20;;;;;;1946836;71;21204;-75
2021/10/26 01:28:13;;;;;;;23.90;18.60;;;25.20;97.70;;;;;;1892720;73;21093;-75
2021/10/26 01:30:44;;;;;;;21.07;16.15;;;25.10;96.00;;;;;;1936921;71;21185;-74
2021/10/26 01:33:16;;;;;;;20.80;16.90;;;25.20;95.50;;;;;;1886525;73;21649;-73
2021/10/26 01:35:47;;;;;;;24.32;17.73;;;25.10;95.40;;;;;;1959033;70;21165;-77
2021/10/26 01:38:18;;;;;;;22.37;17.57;;;25.30;95.90;;;;;;1987808;69;21153;-77
2021/10/26 01:40:49;;;;;;;19.32;16.67;;;25.30;96.70;;;;;;1980687;69;21652;-76
2021/10/26 01:43:21;;;;;;;22.02;17.25;;;25.30;96.20;;;;;;1980826;69;21083;-76
2021/10/26 01:45:54;;;;;;;19.57;17.45;;;25.30;96.20;;;;;;1990328;69;21226;-76
2021/10/26 01:48:26;;;;;;;21.97;16.75;;;25.50;94.40;;;;;;1952872;69;21676;-76
2021/10/26 01:50:58;;;;;;;20.48;16.55;;;25.50;94.20;;;;;;1976843;69;21186;-76
2021/10/26 01:53:29;;;;;;;20.40;16.50;;;25.50;94.10;;;;;;1967949;70;21581;-76
2021/10/26 01:55:59;;;;;;;21.57;16.80;;;25.70;93.70;;;;;;2014532;69;21154;-76
2021/10/26 01:58:30;;;;;;;18.65;16.10;;;25.60;93.40;;;;;;1981092;69;21115;-76
2021/10/26 02:01:01;;;;;;;18.87;15.95;;;25.70;93.30;;;;;;1990167;69;21139;-76
2021/10/26 02:03:32;;;;;;;19.87;15.93;;;25.70;93.10;;;;;;1990218;69;21079;-76
2021/10/26 02:06:04;;;;;;;18.32;14.90;;;25.80;93.30;;;;;;1996649;69;21925;-76
2021/10/26 02:08:35;;;;;;;19.15;15.95;;;26.00;93.70;;;;;;1973233;70;21240;-75
2021/10/26 02:11:05;;;;;;;21.30;16.05;;;26.00;94.00;;;;;;1923909;70;21095;-76
2021/10/26 02:13:36;;;;;;;20.95;15.98;;;26.00;94.20;;;;;;1959889;71;21101;-76
2021/10/26 02:16:08;;;;;;;23.02;17.02;;;26.10;94.80;;;;;;1942318;72;21083;-77
2021/10/26 02:18:38;;;;;;;20.43;16.52;;;26.00;94.00;;;;;;1983389;70;21555;-75
2021/10/26 02:21:10;;;;;;;19.55;16.07;;;26.20;94.30;;;;;;1964786;70;21236;-75
2021/10/26 02:23:40;;;;;;;20.15;16.10;;;26.30;94.70;;;;;;1976966;70;21100;-76
2021/10/26 02:26:12;;;;;;;20.75;16.95;;;26.30;94.60;;;;;;1950973;70;21174;-75
2021/10/26 02:28:44;;;;;;;18.85;15.30;;;26.40;94.70;;;;;;1985264;70;21232;-75
2021/10/26 02:31:15;;;;;;;19.95;15.90;;;26.50;95.40;;;;;;1977818;70;21174;-75
2021/10/26 02:33:45;;;;;;;17.45;15.20;;;26.40;95.50;;;;;;1984187;70;21676;-74
2021/10/26 02:36:16;;;;;;;18.15;14.28;;;26.60;95.10;;;;;;1906606;73;21204;-74
2021/10/26 02:38:47;;;;;;;17.40;14.87;;;26.70;94.50;;;;;;1941491;72;21124;-74
2021/10/26 02:41:18;;;;;;;20.12;14.90;;;26.70;94.10;;;;;;1950877;72;21240;-76
2021/10/26 02:43:49;;;;;;;18.75;15.40;;;26.70;93.80;;;;;;1947915;72;21155;-75
2021/10/26 02:46:20;;;;;;;17.02;14.58;;;26.90;93.50;;;;;;1997669;69;21556;-74
2021/10/26 02:48:51;;;;;;;16.37;14.25;;;26.90;93.00;;;;;;1962428;71;21087;-75
2021/10/26 02:51:22;;;;;;;17.23;15.03;;;26.90;92.70;;;;;;1960693;71;21114;-75
2021/10/26 02:53:53;;;;;;;19.05;14.93;;;27.10;92.60;;;;;;1961919;71;21115;-77
2021/10/26 02:56:24;;;;;;;20.05;14.47;;;27.10;92.50;;;;;;1936929;72;21084;-76
2021/10/26 02:58:55;;;;;;;15.85;13.68;;;27.20;92.70;;;;;;1932288;72;21233;-76
2021/10/26 03:01:25;;;;;;;18.07;14.60;;;27.30;93.10;;;;;;1927629;71;21175;-77
2021/10/26 03:03:56;;;;;;;17.57;13.88;;;27.40;90.90;;;;;;1911714;72;21119;-75
2021/10/26 03:06:28;;;;;;;16.62;13.93;;;27.50;95.90;;;;;;1924424;71;21170;-74
2021/10/26 03:08:58;;;;;;;17.17;14.55;;;27.60;96.60;;;;;;1917342;72;21158;-74
2021/10/26 03:11:29;;;;;;;18.82;13.80;;;27.60;90.50;;;;;;1954305;70;21122;-77
2021/10/26 03:14:01;;;;;;;14.95;13.35;;;27.70;89.10;;;;;;1984606;69;21587;-77
2021/10/26 03:16:32;;;;;;;17.70;12.93;;;27.80;87.00;;;;;;1985183;69;21208;-75
2021/10/26 03:19:05;;;;;;;16.95;13.50;;;27.70;85.80;;;;;;1983439;69;21925;-75
2021/10/26 03:21:38;;;;;;;16.55;13.08;;;27.90;93.40;;;;;;1986739;69;21636;-75
2021/10/26 03:24:09;;;;;;;17.00;13.30;;;27.90;85.00;;;;;;2001805;69;21062;-75
2021/10/26 03:26:40;;;;;;;17.95;13.48;;;28.00;85.10;;;;;;1948867;71;21089;-75
2021/10/26 03:29:11;;;;;;;14.23;12.47;;;28.10;84.80;;;;;;1981630;72;21228;-74
2021/10/26 03:31:42;;;;;;;16.17;13.38;;;28.30;83.80;;;;;;1964829;71;21559;-81
2021/10/26 03:34:13;;;;;;;19.25;13.28;;;28.40;82.90;;;;;;1935558;71;21279;-78
2021/10/26 03:36:44;;;;;;;14.60;12.58;;;28.50;82.90;;;;;;1963713;71;21147;-80
2021/10/26 03:39:15;;;;;;;16.25;12.85;;;28.70;82.20;;;;;;1977547;70;21076;-80
2021/10/26 03:41:46;;;;;;;13.53;12.03;;;28.90;81.70;;;;;;1954553;70;21551;-80
2021/10/26 03:44:17;;;;;;;16.82;10.95;;;29.00;82.30;;;;;;1948405;70;21597;-81
2021/10/26 03:46:48;;;;;;;14.28;11.45;;;29.10;80.20;;;;;;1949119;71;21107;-76
2021/10/26 03:49:20;;;;;;;14.43;11.90;;;29.10;79.40;;;;;;1973439;69;21819;-76
2021/10/26 03:51:50;;;;;;;12.50;10.88;;;29.30;79.80;;;;;;1988236;70;21191;-77
2021/10/26 03:54:21;;;;;;;13.68;10.85;;;29.30;79.50;;;;;;1980082;71;21677;-77
2021/10/26 03:56:52;;;;;;;11.75;10.48;;;29.40;78.40;;;;;;1974630;70;21813;-76
2021/10/26 03:59:29;;;;;;;11.95;10.38;;;29.40;78.10;;;;;;1983172;70;21107;-77
2021/10/26 04:01:55;;;;;;;11.93;10.58;;;29.50;76.90;;;;;;2007333;70;21107;-76
2021/10/26 04:04:27;;;;;;;11.65;10.35;;;29.50;76.80;;;;;;1980892;69;21705;-76
2021/10/26 04:06:58;;;;;;;12.63;9.78;;;29.70;77.10;;;;;;1968364;70;21205;-74
2021/10/26 04:09:43;;;;;;;12.58;10.18;;;29.80;91.20;;;;;;1965582;69;21169;-76
2021/10/26 04:14:34;;;;;;;12.70;9.73;;;30.10;86.30;;;;;;1990483;69;21134;-75
2021/10/26 04:17:05;;;;;;;12.23;10.00;;;30.20;88.00;;;;;;1969002;70;21659;-76
2021/10/26 04:19:36;;;;;;;13.48;10.35;;;30.10;75.50;;;;;;1950727;70;21119;-75
2021/10/26 04:22:08;;;;;;;12.88;9.88;;;30.20;75.30;;;;;;1954582;70;21180;-75
2021/10/26 04:24:38;;;;;;;11.95;9.43;;;30.20;85.40;;;;;;1977969;69;21107;-76
2021/10/26 04:27:09;;;;;;;9.95;8.55;;;30.40;93.30;;;;;;2001939;69;21193;-75
2021/10/26 04:29:42;;;;;;;10.85;9.30;;;30.60;85.10;;;;;;2009817;69;21423;-76
2021/10/26 04:32:16;;;;;;;11.65;9.90;;;30.40;73.10;;;;;;2010060;69;21118;-76
2021/10/26 04:34:49;;;;;;;12.35;9.60;;;30.50;75.00;;;;;;2011243;69;21236;-77
2021/10/26 04:37:19;;;;;;;12.90;9.33;;;30.70;74.70;;;;;;1999496;69;21685;-74
2021/10/26 04:39:50;;;;;;;13.05;10.20;;;30.60;74.30;;;;;;1981795;69;21184;-75
2021/10/26 04:42:22;;;;;;;12.85;9.70;;;30.60;75.30;;;;;;1977407;69;21094;-74
2021/10/26 04:44:53;;;;;;;10.78;9.33;;;30.60;75.90;;;;;;1984604;69;22269;-75
2021/10/26 04:47:25;;;;;;;9.50;8.60;;;30.60;75.30;;;;;;1976848;70;21143;-75
2021/10/26 04:49:56;;;;;;;11.03;9.43;;;30.70;73.90;;;;;;1926486;71;21666;-74
2021/10/26 04:52:27;;;;;;;11.22;9.13;;;30.70;75.10;;;;;;1950971;71;21190;-75
2021/10/26 04:54:57;;;;;;;12.13;9.85;;;30.80;75.90;;;;;;1929972;71;21090;-75
2021/10/26 04:57:28;;;;;;;11.80;9.55;;;30.80;75.90;;;;;;1905720;73;21699;-74
2021/10/26 04:59:59;;;;;;;12.25;9.63;;;30.80;75.20;;;;;;1970500;71;21191;-74
2021/10/26 05:02:30;;;;;;;10.30;9.08;;;30.80;75.20;;;;;;1933723;71;21152;-75
2021/10/26 05:05:01;;;;;;;10.82;9.73;;;30.70;75.70;;;;;;1955007;71;21170;-74
2021/10/26 05:07:32;;;;;;;11.60;9.65;;;30.90;76.70;;;;;;1962722;71;21077;-74
2021/10/26 05:10:03;;;;;;;12.15;9.50;;;30.90;73.00;;;;;;1950160;71;21210;-74
2021/10/26 05:12:53;;;;;;;10.98;8.85;;;31.00;71.20;;;;;;1964558;71;21261;-74
2021/10/26 05:15:24;;;;;;;10.43;9.40;;;31.00;72.20;;;;;;1876466;74;21672;-74
2021/10/26 05:17:58;;;;;;;13.30;9.33;;;31.10;72.30;;;;;;1920733;71;21680;-74
2021/10/26 05:20:29;;;;;;;11.85;9.40;;;31.00;74.60;;;;;;1940938;73;21095;-74
2021/10/26 05:23:02;;;;;;;12.20;10.45;;;31.10;70.80;;;;;;1929936;73;21645;-74
2021/10/26 05:25:32;;;;;;;10.20;9.10;;;31.10;70.90;;;;;;1936085;73;21156;-74
2021/10/26 05:28:03;;;;;;;10.58;8.83;;;31.10;70.90;;;;;;1904994;73;21156;-75
2021/10/26 05:30:34;;;;;;;12.93;9.88;;;31.00;71.20;;;;;;1861948;75;21196;-75
2021/10/26 05:33:05;;;;;;;12.58;9.60;;;30.90;71.00;;;;;;1882849;75;21164;-75
2021/10/26 05:35:36;;;;;;;11.83;10.13;;;30.80;71.10;;;;;;1854539;75;21200;-75
2021/10/26 05:38:08;;;;;;;10.80;9.40;;;30.80;71.20;;;;;;1861262;76;21700;-76
2021/10/26 05:40:39;;;;;;;9.80;8.83;;;30.90;71.40;;;;;;1909816;73;21647;-76
2021/10/26 05:43:10;;;;;;;10.40;9.18;;;30.90;70.70;;;;;;1844572;75;21087;-75
2021/10/26 05:45:45;;;;;;;9.38;8.38;;;30.90;70.60;;;;;;1922202;73;21097;-76
2021/10/26 05:48:16;;;;;;;10.40;9.08;;;30.90;69.90;;;;;;1916023;73;21156;-75
2021/10/26 05:50:48;;;;;;;10.08;9.05;;;30.80;70.50;;;;;;1927072;72;21674;-75
2021/10/26 05:53:18;;;;;;;11.18;9.80;;;30.60;70.90;;;;;;1903687;74;21126;-75
2021/10/26 05:55:49;;;;;;;12.28;8.95;;;30.50;71.50;;;;;;1895543;73;21110;-77
2021/10/26 05:58:20;;;;;;;12.20;9.63;;;30.40;71.10;;;;;;1914128;73;21222;-76
2021/10/26 06:00:52;;;;;;;9.98;8.75;;;30.50;72.30;;;;;;1934718;73;21517;-75
2021/10/26 06:03:23;;;;;;;11.60;8.78;;;30.50;72.00;;;;;;1885885;74;21280;-75
2021/10/26 06:05:54;;;;;;;12.88;9.30;;;30.50;71.90;;;;;;1878282;74;21542;-76
2021/10/26 06:08:25;;;;;;;10.50;8.28;;;30.40;71.40;;;;;;1892823;74;21090;-76
2021/10/26 06:11:00;;;;;;;10.72;8.80;;;30.40;70.90;;;;;;1902688;74;21718;-75
2021/10/26 06:13:31;;;;;;;9.93;8.35;;;30.30;72.50;;;;;;1885414;74;21122;-76
2021/10/26 06:16:02;;;;;;;9.58;8.55;;;30.40;72.10;;;;;;1905179;73;21166;-75
2021/10/26 06:18:34;;;;;;;11.70;8.95;;;30.40;71.20;;;;;;1917115;73;21229;-77
2021/10/26 06:21:08;;;;;;;8.95;8.03;;;30.50;71.20;;;;;;1920496;73;21299;-75
2021/10/26 06:23:39;;;;;;;9.28;8.28;;;30.50;71.40;;;;;;1896774;74;21703;-76
2021/10/26 06:26:11;;;;;;;9.93;8.15;;;30.50;71.20;;;;;;1914285;72;21586;-77
2021/10/26 06:28:42;;;;;;;15.08;9.23;;;30.50;70.90;;;;;;1919334;72;21058;-76
2021/10/26 06:31:13;;;;;;;14.10;8.75;;;30.40;70.90;;;;;;1917430;72;21635;-75
2021/10/26 06:33:44;;;;;;;9.95;8.00;;;30.40;71.60;;;;;;1938580;72;21709;-73
2021/10/26 06:36:15;;;;;;;9.58;8.50;;;30.40;71.40;;;;;;1905492;72;21603;-74
2021/10/26 06:38:48;;;;;;;10.13;8.03;;;30.40;71.30;;;;;;1921020;72;21164;-74
2021/10/26 06:41:20;;;;;;;12.10;9.08;;;30.40;71.80;;;;;;1913623;72;21124;-76
2021/10/26 06:43:51;;;;;;;10.25;8.65;;;30.40;71.70;;;;;;1905960;73;21119;-76
2021/10/26 06:46:22;;;;;;;10.90;8.95;;;30.40;71.30;;;;;;1925042;72;21235;-76
2021/10/26 06:48:53;;;;;;;11.75;9.03;;;30.40;71.20;;;;;;1918171;72;21132;-75
2021/10/26 06:51:24;;;;;;;12.40;9.35;;;30.50;70.60;;;;;;1916260;72;21225;-75
2021/10/26 06:53:54;;;;;;;10.35;9.08;;;30.60;71.30;;;;;;1901865;72;21140;-75
2021/10/26 06:56:27;;;;;;;24.77;10.95;;;30.70;71.40;;;;;;1915688;73;21765;-75
2021/10/26 06:58:57;;;;;;;10.25;9.20;;;30.80;71.40;;;;;;1897817;73;21066;-75
2021/10/26 07:01:28;;;;;;;12.85;10.13;;;30.90;70.90;;;;;;1911564;73;21581;-75
2021/10/26 07:03:59;;;;;;;10.20;9.18;;;30.90;71.00;;;;;;1914053;73;21101;-75
2021/10/26 07:06:30;;;;;;;11.43;9.48;;;30.90;70.90;;;;;;1904042;72;21073;-75
2021/10/26 07:09:02;;;;;;;13.08;9.30;;;30.90;70.40;;;;;;1920492;72;21602;-75
2021/10/26 07:11:34;;;;;;;10.95;9.73;;;30.80;70.90;;;;;;1913963;72;21714;-75
2021/10/26 07:14:04;;;;;;;12.10;9.90;;;30.80;70.70;;;;;;1914486;73;21608;-74
2021/10/26 07:16:35;;;;;;;10.65;9.13;;;30.70;70.90;;;;;;1904802;73;21132;-76
2021/10/26 07:19:06;;;;;;;11.12;9.80;;;30.70;71.20;;;;;;1894657;74;21915;-74
2021/10/26 07:21:38;;;;;;;10.65;9.55;;;30.60;71.30;;;;;;1915568;73;21084;-74
2021/10/26 07:24:10;;;;;;;9.90;8.65;;;30.60;72.00;;;;;;1916098;73;21125;-75
2021/10/26 07:26:41;;;;;;;12.60;9.35;;;30.60;71.90;;;;;;1927150;72;21604;-75
2021/10/26 07:29:12;;;;;;;11.15;9.78;;;30.50;71.70;;;;;;1902412;73;21105;-76
2021/10/26 07:31:43;;;;;;;14.35;10.50;;;30.40;72.20;;;;;;1879511;74;21199;-76
2021/10/26 07:34:14;;;;;;;15.32;10.20;;;30.40;73.20;;;;;;1868089;75;21200;-76
2021/10/26 07:36:46;;;;;;;10.93;9.43;;;30.40;73.50;;;;;;1907289;73;21199;-76
2021/10/26 07:41:51;;;;;;;11.57;9.75;;;30.20;73.30;;;;;;1867279;75;21219;-75
2021/10/26 07:44:22;;;;;;;11.57;9.53;;;30.10;73.30;;;;;;1917151;73;22340;-76
2021/10/26 07:46:53;;;;;;;11.60;9.90;;;30.10;73.70;;;;;;1903541;73;21214;-75
2021/10/26 07:49:24;;;;;;;12.88;9.15;;;30.00;73.80;;;;;;1898605;73;21114;-75
2021/10/26 07:51:55;;;;;;;13.75;9.88;;;30.00;73.70;;;;;;1919360;72;21107;-75
2021/10/26 07:54:26;;;;;;;13.45;10.38;;;30.00;73.80;;;;;;1927565;73;21549;-75
2021/10/26 07:56:59;;;;;;;11.90;9.63;;;29.90;74.20;;;;;;1857185;75;21767;-76
2021/10/26 07:59:30;;;;;;;12.82;10.05;;;29.90;75.30;;;;;;1864491;75;21122;-76
2021/10/26 08:02:01;;;;;;;11.60;10.40;;;29.90;74.40;;;;;;1868564;75;21620;-75
2021/10/26 08:04:32;;;;;;;13.00;10.80;;;29.90;74.80;;;;;;1846668;75;21552;-76
2021/10/26 08:07:03;;;;;;;11.30;9.70;;;29.90;75.00;;;;;;1870309;74;21086;-75
2021/10/26 08:09:34;;;;;;;11.25;9.98;;;30.00;74.90;;;;;;1889637;73;21223;-76
2021/10/26 08:12:05;;;;;;;12.55;9.95;;;30.00;74.80;;;;;;1887553;73;21133;-76
2021/10/26 08:14:36;;;;;;;14.55;10.45;;;30.10;74.30;;;;;;1860490;75;21104;-77
2021/10/26 08:17:07;;;;;;;12.82;9.65;;;30.20;73.90;;;;;;1887681;74;21251;-76
2021/10/26 08:19:41;;;;;;;14.45;11.18;;;30.20;74.10;;;;;;1862079;75;21102;-74
2021/10/26 08:22:16;;;;;;;13.43;10.72;;;30.20;73.70;;;;;;1867781;74;21119;-75
2021/10/26 08:24:50;;;;;;;13.13;10.05;;;30.10;74.00;;;;;;1875188;75;21227;-74
2021/10/26 08:27:21;;;;;;;12.05;10.72;;;30.10;74.20;;;;;;1884645;74;21099;-74
2021/10/26 08:30:13;;;;;;;15.53;11.48;;;30.10;74.60;;;;;;1868015;75;21720;-74
2021/10/26 08:37:31;;;;;;;12.00;10.65;;;30.00;75.00;;;;;;1857464;74;21621;-74
2021/10/26 08:40:02;;;;;;;12.15;10.55;;;30.00;75.30;;;;;;1872397;73;21115;-74
2021/10/26 08:42:33;;;;;;;12.35;10.40;;;30.00;74.70;;;;;;1866236;75;21105;-76
2021/10/26 08:45:06;;;;;;;11.35;9.90;;;30.10;74.80;;;;;;1868103;75;21134;-75
2021/10/26 08:47:38;;;;;;;12.90;10.78;;;30.00;75.20;;;;;;1888354;74;21227;-74
2021/10/26 08:50:09;;;;;;;11.15;10.05;;;30.00;75.20;;;;;;1884173;73;21100;-74
2021/10/26 08:52:40;;;;;;;14.55;10.20;;;30.00;75.50;;;;;;1927434;72;21213;-75
2021/10/26 08:55:13;;;;;;;12.37;9.98;;;30.10;75.30;;;;;;1912854;72;21223;-75
2021/10/26 08:57:44;;;;;;;11.88;10.48;;;30.10;74.90;;;;;;1932135;72;21701;-74
2021/10/26 09:00:17;;;;;;;12.45;10.20;;;30.00;75.00;;;;;;1905745;73;21097;-74
2021/10/26 09:02:50;;;;;;;11.03;9.90;;;30.00;75.40;;;;;;1926042;72;21630;-74
2021/10/26 09:05:23;;;;;;;11.20;9.58;;;30.00;75.50;;;;;;1916574;72;21530;-75
2021/10/26 09:07:56;;;;;;;12.68;10.30;;;30.00;75.30;;;;;;1925493;73;21602;-75
2021/10/26 09:10:31;;;;;;;14.43;12.53;;;30.00;75.60;;;;;;1901132;74;21951;-74
2021/10/26 09:18:12;;;;;;;12.88;10.88;;;30.00;76.90;;;;;;1847678;75;21183;-73
2021/10/26 09:20:45;;;;;;;13.48;10.93;;;30.00;76.50;;;;;;1880006;75;21095;-74
2021/10/26 09:23:18;;;;;;;13.25;10.30;;;30.00;76.40;;;;;;1894453;74;21173;-74
2021/10/26 09:25:51;;;;;;;11.40;10.25;;;29.90;76.10;;;;;;1898235;74;21641;-74
2021/10/26 09:28:24;;;;;;;12.10;10.32;;;29.90;76.20;;;;;;1891634;74;21254;-74
2021/10/26 09:30:57;;;;;;;12.68;10.23;;;29.90;76.70;;;;;;1868485;75;21639;-74
2021/10/26 09:33:31;;;;;;;10.35;9.35;;;29.80;76.70;;;;;;1865361;75;21761;-73
2021/10/26 09:36:05;;;;;;;10.60;9.50;;;29.80;76.30;;;;;;1875437;74;21204;-74
2021/10/26 09:38:32;;;;;;;10.80;9.48;;;29.80;76.20;;;;;;1888956;73;21156;-73
2021/10/26 09:41:05;;;;;;;11.35;9.78;;;29.70;76.40;;;;;;1886733;74;21091;-74
2021/10/26 09:43:36;;;;;;;11.63;10.38;;;29.70;76.40;;;;;;1860942;75;21161;-74
2021/10/26 09:46:09;;;;;;;15.38;9.78;;;29.70;76.50;;;;;;1895925;73;21182;-74
2021/10/26 09:48:48;;;;;;;12.58;10.05;;;29.70;76.80;;;;;;1869836;74;21587;-74
2021/10/26 09:51:19;;;;;;;13.22;10.40;;;29.70;76.80;;;;;;1885073;74;21189;-71
2021/10/26 09:53:52;;;;;;;11.20;10.00;;;29.50;77.30;;;;;;1914809;73;21539;-72
2021/10/26 09:56:23;;;;;;;12.80;10.13;;;29.50;77.30;;;;;;1900158;73;21663;-74
2021/10/26 09:58:58;;;;;;;14.93;10.60;;;29.50;77.80;;;;;;1852857;75;21181;-73
2021/10/26 10:01:32;;;;;;;14.85;11.95;;;29.50;77.80;;;;;;1870073;75;21427;-73
2021/10/26 10:04:06;;;;;;;12.40;9.90;;;29.50;78.00;;;;;;1938591;72;21127;-74
2021/10/26 10:06:37;;;;;;;15.60;10.32;;;29.50;78.50;;;;;;1895945;73;21151;-74
2021/10/26 10:09:12;;;;;;;10.68;9.38;;;29.50;78.50;;;;;;1901682;73;21082;-74
2021/10/26 10:11:47;;;;;;;12.80;10.30;;;29.40;78.00;;;;;;1940085;72;21598;-75
2021/10/26 10:14:18;;;;;;;10.85;9.23;;;29.40;78.10;;;;;;1906214;73;21183;-74
2021/10/26 10:16:50;;;;;;;13.98;9.73;;;29.40;77.90;;;;;;1930572;72;21126;-75
2021/10/26 10:19:23;;;;;;;13.55;10.05;;;29.30;78.10;;;;;;1932090;72;21235;-74
2021/10/26 10:21:55;;;;;;;12.07;9.50;;;29.30;78.30;;;;;;1934347;72;21677;-73
2021/10/26 10:24:28;;;;;;;13.00;9.40;;;29.30;78.30;;;;;;1914888;72;21230;-74
2021/10/26 10:27:00;;;;;;;11.48;10.28;;;29.20;78.30;;;;;;1907039;73;21593;-75
2021/10/26 10:29:31;;;;;;;14.40;10.08;;;29.20;78.60;;;;;;1908694;73;21106;-74
2021/10/26 10:32:03;;;;;;;11.35;10.13;;;29.20;78.70;;;;;;1918983;72;21159;-74
2021/10/26 10:34:37;;;;;;;12.20;10.25;;;29.20;78.90;;;;;;1916602;72;21603;-75
2021/10/26 10:37:08;;;;;;;13.93;10.80;;;29.20;78.80;;;;;;1926003;72;21699;-73
2021/10/26 10:39:51;;;;;;;15.20;11.75;;;29.10;78.80;;;;;;1931531;72;21200;-75
2021/10/26 10:42:30;;;;;;;12.30;10.98;;;29.10;79.10;;;;;;1944162;72;21048;-75
2021/10/26 10:44:55;;;;;;;13.95;11.90;;;29.10;79.20;;;;;;1895867;74;21184;-74
2021/10/26 10:47:29;;;;;;;15.53;11.30;;;29.00;79.40;;;;;;1879164;75;21147;-74
2021/10/26 10:50:00;;;;;;;14.35;11.05;;;29.00;79.70;;;;;;1880019;74;21191;-74
2021/10/26 10:52:34;;;;;;;14.13;11.57;;;29.00;79.80;;;;;;1891882;74;21190;-75
2021/10/26 10:55:07;;;;;;;16.37;12.50;;;29.00;80.00;;;;;;1882212;74;21203;-74
2021/10/26 10:57:41;;;;;;;18.10;13.45;;;29.00;80.20;;;;;;1946554;72;21195;-74
2021/10/26 11:00:15;;;;;;;17.48;12.45;;;29.00;80.50;;;;;;1935256;72;21645;-74
2021/10/26 11:02:52;;;;;;;18.20;12.65;;;28.90;80.60;;;;;;1929732;72;21152;-75
2021/10/26 11:05:25;;;;;;;18.42;13.68;;;28.80;80.80;;;;;;1947426;72;21645;-74
2021/10/26 11:07:56;;;;;;;16.90;13.35;;;28.80;82.00;;;;;;1929437;72;21181;-76
2021/10/26 11:10:30;;;;;;;16.37;12.47;;;28.80;81.50;;;;;;1924258;72;21175;-74
2021/10/26 11:13:03;;;;;;;16.35;13.53;;;28.80;81.60;;;;;;1898994;73;21187;-73
2021/10/26 11:15:36;;;;;;;18.73;13.08;;;28.80;81.70;;;;;;1932594;72;21155;-73
2021/10/26 11:18:07;;;;;;;17.55;13.50;;;28.80;82.00;;;;;;1926014;72;21647;-72
2021/10/26 11:20:37;;;;;;;18.02;13.80;;;28.70;82.00;;;;;;1922244;72;21669;-73
2021/10/26 11:23:10;;;;;;;18.75;14.23;;;28.70;82.20;;;;;;1923652;73;21221;-72
2021/10/26 11:25:43;;;;;;;17.02;14.07;;;28.60;82.40;;;;;;1918444;74;21178;-72
2021/10/26 11:28:15;;;;;;;19.60;14.43;;;28.70;82.70;;;;;;1950758;72;21530;-73
2021/10/26 11:30:45;;;;;;;17.90;14.30;;;28.60;82.60;;;;;;1930765;71;21196;-74
2021/10/26 11:33:16;;;;;;;20.80;14.83;;;28.60;82.80;;;;;;1939930;72;21397;-74
2021/10/26 11:35:51;;;;;;;20.45;14.50;;;28.60;83.00;;;;;;1922708;73;21073;-74
2021/10/26 11:38:23;;;;;;;20.20;15.30;;;28.50;83.10;;;;;;1924541;73;21659;-73
2021/10/26 11:40:58;;;;;;;21.33;14.10;;;28.50;83.20;;;;;;1922019;73;21167;-74
2021/10/26 11:43:31;;;;;;;18.23;13.95;;;28.50;83.50;;;;;;1901712;72;21590;-73
2021/10/26 11:46:04;;;;;;;24.37;15.75;;;28.50;83.60;;;;;;1886420;74;21176;-74
2021/10/26 11:48:38;;;;;;;20.82;14.13;;;28.40;83.60;;;;;;1874743;75;21244;-73
2021/10/26 11:51:12;;;;;;;21.70;14.85;;;28.40;83.90;;;;;;1860842;74;21137;-73
2021/10/26 11:53:43;;;;;;;18.73;14.65;;;28.40;84.10;;;;;;1875481;75;21079;-73
2021/10/26 11:56:16;;;;;;;17.95;14.78;;;28.40;84.10;;;;;;1869910;75;21180;-73
2021/10/26 11:58:49;;;;;;;19.20;14.13;;;28.30;84.20;;;;;;1871304;76;21163;-74
2021/10/26 12:01:21;;;;;;;20.43;14.28;;;28.30;84.40;;;;;;1883509;74;21651;-74
2021/10/26 12:03:51;;;;;;;20.75;15.28;;;28.30;84.40;;;;;;1890616;74;21131;-73
2021/10/26 12:06:25;;;;;;;20.02;14.33;;;28.30;84.50;;;;;;1885545;74;21539;-73
2021/10/26 12:08:58;;;;;;;23.02;15.32;;;28.30;84.40;;;;;;1865895;74;21141;-73
2021/10/26 12:11:32;;;;;;;23.47;15.32;;;28.30;84.50;;;;;;1857950;75;21181;-74
2021/10/26 12:14:06;;;;;;;23.73;15.08;;;28.30;84.50;;;;;;1914130;73;21181;-74
2021/10/26 12:16:37;;;;;;;19.30;14.73;;;28.30;84.40;;;;;;1862443;74;21248;-74
2021/10/26 12:19:11;;;;;;;18.45;13.65;;;28.20;84.40;;;;;;1915969;73;21148;-74
2021/10/26 12:21:45;;;;;;;16.52;13.60;;;28.30;84.40;;;;;;1918836;73;21585;-74
2021/10/26 12:24:18;;;;;;;18.02;13.70;;;28.20;84.40;;;;;;1906147;73;21083;-74
2021/10/26 12:26:51;;;;;;;20.70;14.23;;;28.20;84.40;;;;;;1908583;72;21655;-75
2021/10/26 12:29:25;;;;;;;16.65;12.68;;;28.20;84.60;;;;;;1904562;74;21628;-73
2021/10/26 12:31:57;;;;;;;21.10;14.40;;;28.20;84.70;;;;;;1929010;72;21662;-73
2021/10/26 12:34:29;;;;;;;15.78;12.10;;;28.20;84.80;;;;;;1907964;73;21191;-74
2021/10/26 12:37:02;;;;;;;17.85;12.93;;;28.10;84.60;;;;;;1892767;74;21157;-73
2021/10/26 12:39:33;;;;;;;16.35;13.30;;;28.10;84.90;;;;;;1884676;74;21610;-75
2021/10/26 12:42:04;;;;;;;17.25;13.00;;;28.10;85.10;;;;;;1902057;74;21629;-73
2021/10/26 12:44:36;;;;;;;17.60;13.10;;;28.10;85.10;;;;;;1868141;75;21238;-73
2021/10/26 12:47:15;;;;;;;15.53;12.30;;;28.10;85.30;;;;;;1865453;75;21644;-74
2021/10/26 12:49:46;;;;;;;17.82;13.18;;;28.10;85.40;;;;;;1879684;74;21615;-74
2021/10/26 12:52:18;;;;;;;18.75;13.15;;;28.10;85.20;;;;;;1874616;75;21109;-72
2021/10/26 12:54:49;;;;;;;17.73;12.60;;;28.10;85.30;;;;;;1833038;76;21166;-75
2021/10/26 12:57:24;;;;;;;16.15;13.22;;;28.10;85.50;;;;;;1893488;73;21105;-75
2021/10/26 13:00:00;;;;;;;16.62;12.75;;;28.10;85.50;;;;;;1860607;75;21184;-75
2021/10/26 13:02:31;;;;;;;20.00;12.80;;;28.10;85.90;;;;;;1865589;74;21081;-76
2021/10/26 13:05:04;;;;;;;19.90;14.45;;;28.10;85.80;;;;;;1868905;74;21156;-75
2021/10/26 13:07:35;;;;;;;17.73;13.20;;;28.10;85.80;;;;;;1867388;74;21638;-75